Time;durP1;ratioP1;P1;durP2;ratioP2;P2;SDS_P1;SDS_P2;PMS_P1;PMS_P2;Temp;Humidity;BMP_temperature;BMP_pressure;BME280_temperature;BME280_humidity;BME280_pressure;Samples;Min_cycle;Max_cycle;Signal;HPM_P1;HPM_P2
2023/05/10 00:00:14;;;;;;;4.82;2.10;;;;;;;15.03;95.13;99462.09;5053306;28;20060;-63
2023/05/10 00:02:41;;;;;;;3.00;2.20;;;;;;;15.02;95.00;99455.66;5051561;28;20425;-64
2023/05/10 00:05:09;;;;;;;3.00;2.38;;;;;;;15.04;95.24;99454.50;5043159;28;20060;-64
2023/05/10 00:07:36;;;;;;;3.05;2.08;;;;;;;15.08;95.38;99461.00;5033038;28;20053;-63
2023/05/10 00:10:07;;;;;;;2.55;2.05;;;;;;;15.11;95.32;99463.06;5032649;28;20049;-63
2023/05/10 00:12:34;;;;;;;2.97;1.90;;;;;;;15.10;95.34;99467.84;5032900;28;20049;-64
2023/05/10 00:15:06;;;;;;;2.40;2.05;;;;;;;15.12;95.38;99461.84;5033020;28;20057;-64
2023/05/10 00:17:35;;;;;;;2.22;1.88;;;;;;;15.06;95.10;99466.16;5033170;28;20402;-64
2023/05/10 00:20:04;;;;;;;3.07;1.83;;;;;;;15.05;94.66;99454.13;5032505;28;20049;-63
2023/05/10 00:22:34;;;;;;;2.65;2.00;;;;;;;14.98;94.28;99459.59;5032686;28;20968;-64
2023/05/10 00:25:01;;;;;;;;;;;;;;;14.93;93.87;99459.88;5033444;28;20057;-63
2023/05/10 00:27:31;;;;;;;2.58;2.00;;;;;;;14.97;93.92;99455.16;5032816;28;19922;-64
2023/05/10 00:29:58;;;;;;;2.50;1.85;;;;;;;14.89;94.12;99459.81;5032589;28;20049;-63
2023/05/10 00:32:26;;;;;;;2.95;2.00;;;;;;;14.91;94.36;99451.00;5033068;28;20065;-64
2023/05/10 00:34:54;;;;;;;2.83;2.05;;;;;;;14.92;94.32;99455.44;5033280;28;20054;-64
2023/05/10 00:37:21;;;;;;;3.83;2.87;;;;;;;14.94;94.81;99458.69;5033045;28;20061;-64
2023/05/10 00:39:49;;;;;;;3.53;2.45;;;;;;;14.92;94.57;99461.06;5032547;28;20053;-63
2023/05/10 00:42:16;;;;;;;3.03;2.30;;;;;;;14.85;94.18;99456.13;5033009;28;20053;-63
2023/05/10 00:44:43;;;;;;;2.83;2.20;;;;;;;14.78;94.07;99442.78;5032418;28;20049;-64
2023/05/10 00:47:12;;;;;;;3.35;2.22;;;;;;;14.80;94.68;99456.41;5032903;28;20398;-63
2023/05/10 00:49:40;;;;;;;3.65;2.58;;;;;;;14.70;94.87;99454.16;5032517;28;20049;-64
2023/05/10 00:52:09;;;;;;;3.05;2.05;;;;;;;14.71;95.18;99453.00;5032771;28;20061;-64
2023/05/10 00:54:37;;;;;;;2.70;2.40;;;;;;;14.78;95.27;99450.34;5032325;28;20160;-63
2023/05/10 00:57:04;;;;;;;3.58;2.58;;;;;;;14.81;95.37;99452.44;5032743;28;20068;-64
2023/05/10 00:59:35;;;;;;;3.78;2.60;;;;;;;14.85;95.54;99455.31;5032618;28;20415;-64
2023/05/10 01:02:04;;;;;;;5.20;2.83;;;;;;;14.84;95.72;99448.88;5034319;28;20076;-63
2023/05/10 01:04:32;;;;;;;;;;;;;;;14.84;95.53;99454.47;5052963;28;20513;-64
2023/05/10 01:06:59;;;;;;;3.97;3.47;;;;;;;14.86;95.48;99454.94;5052655;28;20364;-64
2023/05/10 01:09:28;;;;;;;4.47;3.47;;;;;;;14.91;95.70;99451.84;5052669;28;20056;-64
2023/05/10 01:11:56;;;;;;;3.90;2.97;;;;;;;14.94;95.87;99458.69;5052893;28;20049;-63
2023/05/10 01:14:24;;;;;;;5.35;3.28;;;;;;;14.94;95.98;99459.50;5052555;28;20056;-63
2023/05/10 01:16:51;;;;;;;3.40;3.00;;;;;;;14.95;95.87;99458.34;5052430;28;20048;-65
2023/05/10 01:19:23;;;;;;;3.50;2.95;;;;;;;15.00;95.73;99455.22;5052494;28;20049;-64
2023/05/10 01:22:06;;;;;;;4.53;3.20;;;;;;;15.00;95.38;99460.03;5052088;28;20045;-64
2023/05/10 01:25:15;;;;;;;4.03;3.17;;;;;;;14.95;94.73;99472.34;5054546;28;20063;-64
2023/05/10 01:28:14;;;;;;;3.63;2.90;;;;;;;14.95;94.60;99469.56;5023086;28;20544;-65
2023/05/10 01:31:09;;;;;;;3.95;3.20;;;;;;;14.84;94.00;99468.50;5056132;28;20359;-64
2023/05/10 01:33:43;;;;;;;4.60;3.92;;;;;;;14.87;94.12;99473.38;5056174;28;20048;-64
2023/05/10 01:36:25;;;;;;;5.65;4.10;;;;;;;14.85;94.39;99477.75;5056009;28;20394;-64
2023/05/10 01:39:03;;;;;;;5.45;4.20;;;;;;;14.87;94.34;99464.97;5055827;28;20053;-65
2023/05/10 01:41:40;;;;;;;5.32;4.30;;;;;;;14.81;94.35;99474.84;5056033;28;20520;-65
2023/05/10 01:44:18;;;;;;;5.70;4.25;;;;;;;14.84;94.18;99478.91;5056295;28;20072;-64
2023/05/10 01:46:50;;;;;;;6.20;4.60;;;;;;;14.80;94.38;99473.22;5055939;28;20057;-64
2023/05/10 01:49:24;;;;;;;6.05;5.07;;;;;;;14.79;93.93;99480.81;5056145;28;20140;-64
2023/05/10 01:51:55;;;;;;;11.45;5.93;;;;;;;14.78;93.91;99468.00;5055914;28;20056;-64
2023/05/10 01:54:24;;;;;;;6.80;5.07;;;;;;;14.73;93.82;99482.28;5055527;28;20049;-64
2023/05/10 01:57:00;;;;;;;8.40;6.35;;;;;;;14.78;93.80;99481.19;5055829;28;20049;-64
2023/05/10 01:59:38;;;;;;;9.57;6.90;;;;;;;14.82;94.17;99479.25;5055544;28;20057;-64
2023/05/10 02:02:07;;;;;;;7.70;6.65;;;;;;;14.86;94.18;99476.56;5055328;28;20482;-64
2023/05/10 02:04:38;;;;;;;9.38;5.70;;;;;;;14.86;94.25;99473.75;5055804;28;20059;-64
2023/05/10 02:07:06;;;;;;;8.07;6.07;;;;;;;14.81;94.11;99478.47;5055705;28;20056;-64
2023/05/10 02:09:35;;;;;;;10.60;7.10;;;;;;;14.83;94.26;99461.28;5055524;28;20060;-64
2023/05/10 02:12:04;;;;;;;8.48;6.35;;;;;;;14.83;94.23;99464.09;5054538;28;20401;-64
2023/05/10 02:14:37;;;;;;;7.35;5.72;;;;;;;14.82;94.26;99488.50;5054991;28;20052;-63
2023/05/10 02:17:08;;;;;;;8.43;6.05;;;;;;;14.88;94.47;99482.59;5055529;28;20057;-63
2023/05/10 02:19:39;;;;;;;12.00;6.78;;;;;;;14.88;94.39;99474.19;5055446;28;20053;-64
2023/05/10 02:22:08;;;;;;;7.90;6.22;;;;;;;14.90;94.51;99494.25;5055362;28;20063;-64
2023/05/10 02:24:37;;;;;;;;;;;;;;;14.86;94.21;99482.97;5055929;28;20486;-64
2023/05/10 02:27:05;;;;;;;9.07;7.13;;;;;;;14.92;94.23;99480.69;5055925;28;19928;-64
2023/05/10 02:29:34;;;;;;;12.25;8.27;;;;;;;14.94;94.58;99484.75;5055272;28;20068;-64
2023/05/10 02:32:03;;;;;;;9.43;7.10;;;;;;;14.96;94.67;99482.38;5055255;28;20060;-64
2023/05/10 02:34:31;;;;;;;8.98;7.43;;;;;;;14.96;94.63;99485.19;5054671;28;20053;-64
2023/05/10 02:37:00;;;;;;;10.40;8.18;;;;;;;14.97;94.53;99495.25;5054559;28;20075;-64
2023/05/10 02:39:33;;;;;;;11.82;8.02;;;;;;;14.98;94.23;99499.66;5055018;28;20064;-64
2023/05/10 02:42:02;;;;;;;11.13;8.85;;;;;;;15.03;94.18;99492.94;5054893;28;20059;-64
2023/05/10 02:44:30;;;;;;;11.15;8.48;;;;;;;15.06;94.40;99485.78;5055045;28;20418;-63
2023/05/10 02:46:58;;;;;;;10.13;7.72;;;;;;;15.09;94.50;99493.47;5055057;28;20059;-64
2023/05/10 02:49:26;;;;;;;12.00;9.05;;;;;;;15.09;94.47;99490.66;5054521;28;20060;-64
2023/05/10 02:52:00;;;;;;;10.43;7.10;;;;;;;15.15;94.63;99491.97;5054187;28;20410;-64
2023/05/10 02:54:33;;;;;;;11.00;7.72;;;;;;;15.16;94.49;99502.00;5054448;28;20053;-64
2023/05/10 02:57:06;;;;;;;9.70;7.60;;;;;;;15.19;94.65;99507.69;5054777;28;20048;-63
2023/05/10 02:59:34;;;;;;;11.23;7.85;;;;;;;15.21;94.83;99512.94;5054707;28;20049;-64
2023/05/10 03:02:05;;;;;;;9.88;7.53;;;;;;;15.24;94.70;99498.16;5054545;28;20053;-64
2023/05/10 03:04:32;;;;;;;6.85;5.80;;;;;;;15.21;94.16;99505.34;5054541;28;20391;-64
2023/05/10 03:06:59;;;;;;;6.93;6.22;;;;;;;15.18;93.81;99505.25;5054725;28;20049;-64
2023/05/10 03:09:27;;;;;;;7.70;6.90;;;;;;;15.17;93.91;99504.44;5054506;28;20057;-64
2023/05/10 03:12:03;;;;;;;7.53;6.72;;;;;;;15.19;93.56;99510.50;5054516;28;20048;-64
2023/05/10 03:14:43;;;;;;;7.72;6.93;;;;;;;15.21;93.72;99510.16;5054112;28;20057;-64
2023/05/10 03:17:16;;;;;;;7.75;6.35;;;;;;;15.20;93.69;99514.13;5054412;28;20060;-63
2023/05/10 03:19:50;;;;;;;5.47;4.28;;;;;;;15.20;93.50;99519.72;5054420;28;20410;-64
2023/05/10 03:22:35;;;;;;;4.57;3.70;;;;;;;15.16;93.23;99516.03;5054246;28;20053;-63
2023/05/10 03:25:08;;;;;;;4.78;2.80;;;;;;;15.09;93.03;99515.91;5053834;28;20048;-64
2023/05/10 03:27:40;;;;;;;4.68;2.78;;;;;;;15.06;92.87;99514.66;5053795;28;20069;-64
2023/05/10 03:30:09;;;;;;;3.80;2.35;;;;;;;15.02;92.50;99510.94;5053936;28;20041;-64
2023/05/10 03:32:36;;;;;;;;;;;;;;;14.94;91.81;99528.81;5054466;28;20053;-64
2023/05/10 03:35:07;;;;;;;3.58;1.70;;;;;;;14.98;92.29;99524.88;5053602;28;20312;-63
2023/05/10 03:37:35;;;;;;;3.78;1.80;;;;;;;14.98;92.20;99524.88;5053475;28;20429;-64
2023/05/10 03:40:02;;;;;;;2.20;1.75;;;;;;;14.97;91.71;99531.69;5054031;28;20045;-64
2023/05/10 03:42:29;;;;;;;3.45;1.98;;;;;;;14.98;91.48;99529.69;5053295;28;20517;-63
2023/05/10 03:44:58;;;;;;;3.80;2.90;;;;;;;14.95;91.55;99536.84;5053737;28;20056;-64
2023/05/10 03:47:25;;;;;;;3.77;2.40;;;;;;;14.98;91.72;99536.09;5053462;28;20053;-63
2023/05/10 03:49:53;;;;;;;4.13;2.83;;;;;;;14.97;91.56;99528.06;5053757;28;20052;-63
2023/05/10 03:52:20;;;;;;;6.50;3.70;;;;;;;14.97;91.77;99542.91;5053592;28;20497;-64
2023/05/10 03:54:47;;;;;;;7.68;6.10;;;;;;;14.98;91.65;99530.50;5053464;28;20052;-63
2023/05/10 03:57:14;;;;;;;10.85;8.18;;;;;;;15.02;91.86;99541.81;5053859;28;20053;-63
2023/05/10 03:59:42;;;;;;;13.13;10.63;;;;;;;14.99;91.70;99546.16;5053458;28;20429;-63
2023/05/10 04:02:10;;;;;;;13.77;11.30;;;;;;;15.02;91.63;99547.41;5053184;28;20049;-63
2023/05/10 04:04:37;;;;;;;14.10;12.18;;;;;;;14.99;91.48;99540.56;5053268;28;20049;-63
2023/05/10 04:07:05;;;;;;;17.80;13.13;;;;;;;15.00;91.18;99539.34;5053578;28;20437;-63
2023/05/10 04:09:32;;;;;;;16.35;13.45;;;;;;;14.95;90.89;99548.06;5053046;28;20052;-63
2023/05/10 04:11:59;;;;;;;16.67;13.82;;;;;;;14.96;90.73;99557.28;5053406;28;20390;-63
2023/05/10 04:14:27;;;;;;;19.95;14.75;;;;;;;14.96;90.96;99549.69;5052674;28;20057;-63
2023/05/10 04:16:55;;;;;;;15.57;12.82;;;;;;;14.96;90.83;99555.28;5053083;28;20069;-63
2023/05/10 04:19:23;;;;;;;17.77;14.00;;;;;;;14.96;90.78;99558.09;5053167;28;20057;-63
2023/05/10 04:21:51;;;;;;;17.83;14.65;;;;;;;14.92;90.51;99545.19;5052934;28;20470;-63
2023/05/10 04:24:18;;;;;;;18.33;14.93;;;;;;;14.93;90.64;99543.97;5052938;28;20063;-63
2023/05/10 04:26:45;;;;;;;17.20;14.02;;;;;;;14.91;90.72;99552.78;5053150;28;20500;-63
2023/05/10 04:29:12;;;;;;;17.23;14.02;;;;;;;14.91;90.63;99549.16;5052757;28;20049;-63
2023/05/10 04:31:40;;;;;;;16.00;13.40;;;;;;;14.78;90.28;99548.47;5052958;28;20049;-61
2023/05/10 04:34:07;;;;;;;15.25;12.38;;;;;;;14.86;90.43;99538.22;5052702;28;20053;-62
2023/05/10 04:36:36;;;;;;;17.52;13.88;;;;;;;14.86;90.46;99539.03;5052960;28;20060;-62
2023/05/10 04:39:04;;;;;;;16.50;13.07;;;;;;;14.88;90.18;99556.31;5053313;28;20049;-62
2023/05/10 04:41:31;;;;;;;18.25;13.65;;;;;;;14.88;90.48;99550.69;5052121;28;20053;-62
2023/05/10 04:43:58;;;;;;;18.00;13.38;;;;;;;14.93;90.85;99547.63;5052830;28;20059;-62
2023/05/10 04:46:25;;;;;;;17.88;13.48;;;;;;;14.82;90.16;99561.41;5052998;28;20061;-62
2023/05/10 04:48:53;;;;;;;17.08;13.48;;;;;;;14.88;89.97;99561.91;5052776;28;20053;-62
2023/05/10 04:51:20;;;;;;;16.42;13.63;;;;;;;14.94;90.14;99560.44;5052799;28;20524;-62
2023/05/10 04:53:48;;;;;;;16.13;12.95;;;;;;;14.94;90.05;99568.88;5052581;28;20410;-62
2023/05/10 04:56:16;;;;;;;13.90;11.25;;;;;;;14.89;89.69;99559.91;5052280;28;20498;-62
2023/05/10 04:58:43;;;;;;;16.35;12.85;;;;;;;14.95;89.83;99580.88;5053507;28;20056;-62
2023/05/10 05:01:11;;;;;;;14.40;11.60;;;;;;;14.92;89.47;99567.59;5056814;28;20053;-62
2023/05/10 05:03:38;;;;;;;14.55;11.43;;;;;;;14.85;89.31;99576.69;5056437;28;20056;-62
2023/05/10 05:06:06;;;;;;;14.75;11.00;;;;;;;14.88;89.00;99570.31;5056541;28;20056;-64
2023/05/10 05:08:33;;;;;;;12.95;9.77;;;;;;;14.87;88.97;99565.91;5056638;28;20053;-64
2023/05/10 05:11:02;;;;;;;14.68;10.23;;;;;;;14.75;89.21;99574.44;5056618;28;20060;-63
2023/05/10 05:13:29;;;;;;;13.48;10.55;;;;;;;14.82;89.32;99591.41;5056229;28;20056;-63
2023/05/10 05:15:56;;;;;;;15.38;10.27;;;;;;;14.88;89.57;99589.16;5056154;28;20061;-63
2023/05/10 05:18:23;;;;;;;14.27;10.65;;;;;;;14.85;89.65;99598.31;5056266;28;20064;-64
2023/05/10 05:20:50;;;;;;;16.30;12.82;;;;;;;14.91;89.41;99585.59;5055981;28;20056;-64
2023/05/10 05:23:18;;;;;;;17.40;13.50;;;;;;;14.88;89.43;99592.75;5056059;28;20402;-63
2023/05/10 05:25:45;;;;;;;16.98;13.60;;;;;;;14.91;89.64;99580.81;5056083;28;20052;-63
2023/05/10 05:28:14;;;;;;;20.27;14.18;;;;;;;14.93;89.42;99581.28;5056019;28;20057;-63
2023/05/10 05:30:41;;;;;;;21.40;14.90;;;;;;;14.99;89.73;99584.59;5056184;28;20056;-64
2023/05/10 05:33:08;;;;;;;19.85;15.77;;;;;;;15.00;89.43;99591.84;5056064;28;20052;-63
2023/05/10 05:35:35;;;;;;;23.17;17.17;;;;;;;14.98;89.12;99609.03;5055787;28;20060;-64
2023/05/10 05:38:03;;;;;;;25.13;17.48;;;;;;;14.98;89.22;99606.22;5056126;28;20402;-64
2023/05/10 05:40:30;;;;;;;25.45;17.58;;;;;;;15.00;89.03;99601.06;5055681;28;20060;-64
2023/05/10 05:42:57;;;;;;;24.08;18.00;;;;;;;15.09;89.48;99592.44;5056147;28;20056;-63
2023/05/10 05:45:26;;;;;;;26.52;18.27;;;;;;;15.13;89.45;99596.13;5055736;28;20068;-64
2023/05/10 05:47:53;;;;;;;31.38;21.20;;;;;;;15.10;89.27;99612.88;5055740;28;20053;-63
2023/05/10 05:50:20;;;;;;;30.52;21.63;;;;;;;15.16;89.39;99594.56;5055662;28;20486;-63
2023/05/10 05:52:47;;;;;;;28.98;20.35;;;;;;;15.23;89.47;99592.75;5055396;28;20057;-63
2023/05/10 05:55:15;;;;;;;31.50;20.77;;;;;;;15.26;89.33;99596.00;5055556;28;20045;-63
2023/05/10 05:57:42;;;;;;;31.63;21.98;;;;;;;15.40;89.59;99599.91;5055696;28;20049;-63
2023/05/10 06:00:10;;;;;;;33.50;23.52;;;;;;;15.50;89.55;99608.94;5055011;28;20490;-63
2023/05/10 06:02:38;;;;;;;30.92;22.23;;;;;;;15.56;89.59;99607.44;5055212;28;20049;-64
2023/05/10 06:05:07;;;;;;;31.27;21.35;;;;;;;15.58;89.20;99624.72;5055205;28;20056;-64
2023/05/10 06:07:35;;;;;;;35.58;23.77;;;;;;;15.72;88.78;99605.41;5055618;28;20060;-63
2023/05/10 06:10:02;;;;;;;29.27;20.67;;;;;;;15.78;88.00;99626.41;5055316;28;20053;-63
2023/05/10 06:12:29;;;;;;;31.02;22.83;;;;;;;15.85;87.51;99624.91;5055043;28;20056;-63
2023/05/10 06:14:57;;;;;;;27.83;20.45;;;;;;;15.98;86.92;99629.16;5055202;28;20049;-63
2023/05/10 06:17:24;;;;;;;33.65;21.88;;;;;;;16.43;86.08;99636.03;5055705;28;20053;-63
2023/05/10 06:19:53;;;;;;;27.42;20.38;;;;;;;16.70;84.90;99639.72;5054987;28;20057;-63
2023/05/10 06:22:22;;;;;;;28.20;20.83;;;;;;;16.82;84.29;99635.94;5055543;28;20060;-63
2023/05/10 06:24:49;;;;;;;27.63;20.23;;;;;;;16.78;84.54;99624.59;5055256;28;20056;-63
2023/05/10 06:27:17;;;;;;;31.85;21.90;;;;;;;16.73;84.42;99632.53;5055286;28;20504;-63
2023/05/10 06:29:44;;;;;;;31.15;22.88;;;;;;;16.73;84.29;99633.31;5054951;28;20053;-63
2023/05/10 06:32:11;;;;;;;33.08;23.15;;;;;;;16.75;85.03;99653.44;5055080;28;20057;-63
2023/05/10 06:34:38;;;;;;;29.85;20.40;;;;;;;16.67;84.03;99646.06;5055010;28;20060;-63
2023/05/10 06:37:07;;;;;;;31.73;23.00;;;;;;;16.70;84.38;99634.09;5054939;28;20053;-63
2023/05/10 06:39:34;;;;;;;29.67;21.42;;;;;;;16.76;83.68;99654.28;5054564;28;20080;-63
2023/05/10 06:42:04;;;;;;;30.08;20.95;;;;;;;16.86;84.39;99644.41;5055179;28;20053;-63
2023/05/10 06:44:31;;;;;;;29.60;22.48;;;;;;;16.92;84.35;99642.91;5054491;28;20049;-63
2023/05/10 06:46:58;;;;;;;29.33;20.98;;;;;;;16.99;83.90;99637.41;5054694;28;20060;-63
2023/05/10 06:49:26;;;;;;;30.63;20.42;;;;;;;17.00;83.86;99650.25;5054717;28;20053;-64
2023/05/10 06:51:53;;;;;;;30.38;22.23;;;;;;;17.10;83.91;99660.06;5054778;28;20048;-63
2023/05/10 06:54:22;;;;;;;31.08;21.50;;;;;;;17.22;84.45;99642.97;5054205;28;20053;-63
2023/05/10 06:56:49;;;;;;;;;;;;;;;17.32;82.26;99655.56;5054977;28;20049;-63
2023/05/10 06:59:18;;;;;;;31.48;23.17;;;;;;;17.47;82.76;99645.31;5054284;28;19920;-63
2023/05/10 07:01:46;;;;;;;30.83;21.65;;;;;;;17.67;82.17;99654.44;5054517;28;20071;-64
2023/05/10 07:04:13;;;;;;;28.83;21.48;;;;;;;17.79;81.02;99665.44;5054003;28;20049;-63
2023/05/10 07:06:40;;;;;;;28.13;22.05;;;;;;;;;;5054661;28;20053;-63
2023/05/10 07:09:07;;;;;;;32.33;22.92;;;;;;;-147.51;100.00;68818.25;5053937;28;20053;-63
2023/05/10 07:11:37;;;;;;;32.78;23.25;;;;;;;18.20;nan;99663.53;5053935;28;20057;-64
2023/05/10 07:14:04;;;;;;;28.45;21.38;;;;;;;18.38;nan;99679.84;5054174;28;20403;-61
2023/05/10 07:16:32;;;;;;;28.70;21.13;;;;;;;18.59;nan;99670.78;5053942;28;20060;-61
2023/05/10 07:19:02;;;;;;;29.27;22.67;;;;;;;18.99;nan;99657.84;5054006;28;20483;-61
2023/05/10 07:21:29;;;;;;;25.63;20.40;;;;;;;19.24;nan;99650.34;5052662;28;20053;-63
2023/05/10 07:23:56;;;;;;;24.95;19.70;;;;;;;19.43;nan;99643.63;5053437;28;20049;-64
2023/05/10 07:26:23;;;;;;;30.88;19.55;;;;;;;19.82;nan;99662.81;5053901;28;20418;-64
2023/05/10 07:28:52;;;;;;;24.77;20.27;;;;;;;19.83;nan;99672.91;5053760;28;20053;-63
2023/05/10 07:31:19;;;;;;;22.03;16.23;;;;;;;19.86;nan;99641.03;5053717;28;20053;-64
2023/05/10 07:33:47;;;;;;;25.25;18.20;;;;;;;19.93;nan;99681.81;5053381;28;20048;-64
2023/05/10 07:36:14;;;;;;;21.92;17.98;;;;;;;20.06;nan;99655.63;5053632;28;20056;-62
2023/05/10 07:38:41;;;;;;;21.27;16.38;;;;;;;19.87;nan;99661.63;5053622;28;20068;-61
2023/05/10 07:41:08;;;;;;;19.65;14.52;;;;;;;20.25;nan;99670.63;5053857;28;20079;-62
2023/05/10 07:43:36;;;;;;;18.17;14.98;;;;;;;20.36;nan;99660.13;5053482;28;20045;-62
2023/05/10 07:46:05;;;;;;;17.02;14.38;;;;;;;21.02;nan;99676.81;5053746;28;20065;-62
2023/05/10 07:48:32;;;;;;;16.48;14.38;;;;;;;21.52;nan;99660.97;5053653;28;20068;-62
2023/05/10 07:50:59;;;;;;;17.38;13.75;;;;;;;21.59;nan;99655.28;5053199;28;20057;-62
2023/05/10 07:53:27;;;;;;;19.50;14.73;;;;;;;21.85;nan;99654.78;5052920;28;20053;-62
2023/05/10 07:55:58;;;;;;;16.08;13.00;;;;;;;22.81;nan;99648.97;5053413;28;20057;-62
2023/05/10 07:58:25;;;;;;;17.00;12.88;;;;;;;23.93;nan;99657.97;5053194;28;20064;-62
2023/05/10 08:00:53;;;;;;;14.73;12.40;;;;;;;25.38;nan;99654.56;5053368;28;20505;-62
2023/05/10 08:03:21;;;;;;;13.90;11.93;;;;;;;25.07;nan;99657.50;5053035;28;20406;-62
2023/05/10 08:05:48;;;;;;;14.95;11.63;;;;;;;24.57;nan;99656.31;5053019;28;20433;-62
2023/05/10 08:08:16;;;;;;;13.82;11.93;;;;;;;23.62;nan;99662.78;5052830;28;20053;-62
2023/05/10 08:10:43;;;;;;;14.88;12.48;;;;;;;22.67;nan;99662.03;5053057;28;20057;-62
2023/05/10 08:13:11;;;;;;;16.63;13.48;;;;;;;21.82;nan;99677.50;5053173;28;20049;-62
2023/05/10 08:15:38;;;;;;;15.30;12.60;;;;;;;21.25;nan;99670.72;5052591;28;20160;-62
2023/05/10 08:18:05;;;;;;;14.82;12.07;;;;;;;20.88;nan;99676.81;5052990;28;20076;-62
2023/05/10 08:20:34;;;;;;;15.45;11.68;;;;;;;20.73;nan;99709.16;5053043;28;20053;-62
2023/05/10 08:23:01;;;;;;;14.93;12.07;;;;;;;20.74;nan;99679.63;5052688;28;20052;-62
2023/05/10 08:25:28;;;;;;;12.45;10.82;;;;;;;20.70;nan;99679.63;5052548;28;20520;-62
2023/05/10 08:27:55;;;;;;;13.25;11.18;;;;;;;21.69;nan;99689.25;5052837;28;20413;-62
2023/05/10 08:30:23;;;;;;;12.45;9.07;;;;;;;23.37;nan;99694.31;5052634;28;20049;-62
2023/05/10 08:32:50;;;;;;;11.70;9.25;;;;;;;22.86;nan;99685.41;5051823;28;20080;-62
2023/05/10 08:35:17;;;;;;;11.10;8.65;;;;;;;22.92;nan;99678.06;5052303;28;20059;-62
2023/05/10 08:37:46;;;;;;;16.17;8.43;;;;;;;22.99;nan;99683.66;5052727;28;20071;-61
2023/05/10 08:40:14;;;;;;;14.85;8.50;;;;;;;23.91;nan;99686.84;5052636;28;20532;-61
2023/05/10 08:42:48;;;;;;;7.82;7.07;;;;;;;24.34;nan;99745.28;5052379;28;20052;-61
2023/05/10 08:45:17;;;;;;;9.68;7.63;;;;;;;24.51;nan;99686.50;5052498;28;20057;-61
2023/05/10 08:47:44;;;;;;;11.75;7.78;;;;;;;24.21;nan;99704.34;5052699;28;20075;-61
2023/05/10 08:50:12;;;;;;;9.30;8.18;;;;;;;24.55;nan;99715.72;5052404;28;20053;-61
2023/05/10 08:52:42;;;;;;;9.85;8.43;;;;;;;24.16;nan;99696.31;5052635;28;20057;-62
2023/05/10 08:55:11;;;;;;;9.77;8.27;;;;;;;24.13;nan;99723.59;5052609;28;20048;-62
2023/05/10 08:57:38;;;;;;;9.60;8.32;;;;;;;24.36;nan;99688.72;5052518;28;20064;-62
2023/05/10 09:00:07;;;;;;;10.35;8.45;;;;;;;24.50;nan;99713.34;5052420;28;20052;-62
2023/05/10 09:02:35;;;;;;;;;;;;;;;25.81;nan;99723.00;5052964;28;20053;-62
2023/05/10 09:05:04;;;;;;;9.10;7.15;;;;;;;26.28;nan;99582.97;5052489;28;20400;-62
2023/05/10 09:07:32;;;;;;;8.10;7.30;;;;;;;-147.51;100.00;68818.25;5052383;28;20064;-62
2023/05/10 09:09:59;;;;;;;7.35;6.32;;;;;;;26.20;nan;99612.13;5052715;28;20064;-62
2023/05/10 09:12:28;;;;;;;9.75;7.43;;;;;;;26.52;nan;99657.88;5052632;28;20056;-62
2023/05/10 09:14:58;;;;;;;8.18;7.20;;;;;;;-147.51;100.00;68818.25;5052183;28;20410;-62
2023/05/10 09:17:26;;;;;;;9.00;7.32;;;;;;;-147.51;100.00;68818.25;5052552;28;20061;-61
2023/05/10 09:19:58;;;;;;;8.50;6.60;;;;;;;-147.51;100.00;68818.25;5052056;28;20057;-63
2023/05/10 09:22:26;;;;;;;8.48;5.65;;;;;;;-147.51;100.00;68818.25;5052479;28;20049;-62
2023/05/10 09:25:05;;;;;;;5.72;4.85;;;;;;;-147.51;100.00;68818.25;5052545;28;20056;-62
2023/05/10 09:27:33;;;;;;;;;;;;;;;-147.51;100.00;68818.25;5052460;28;20053;-62
2023/05/10 09:30:00;;;;;;;7.95;5.72;;;;;;;-147.51;100.00;68818.25;5052038;28;20406;-62
2023/05/10 09:32:37;;;;;;;6.35;5.25;;;;;;;-147.51;100.00;68818.25;5052401;28;20052;-62
2023/05/10 09:35:09;;;;;;;7.55;5.05;;;;;;;-147.51;100.00;68818.25;5052238;28;20504;-62
2023/05/10 09:37:36;;;;;;;6.85;4.68;;;;;;;-147.51;100.00;68818.25;5051917;28;20053;-62
2023/05/10 09:40:08;;;;;;;7.07;4.90;;;;;;;-147.51;100.00;68818.25;5054358;28;20060;-60
2023/05/10 09:42:37;;;;;;;7.63;5.53;;;;;;;-147.51;100.00;68818.25;5051992;28;20053;-60
2023/05/10 09:45:05;;;;;;;9.65;5.35;;;;;;;-147.51;100.00;68818.25;5053609;28;20482;-60
2023/05/10 09:47:34;;;;;;;7.70;6.55;;;;;;;-147.51;100.00;68818.25;5055580;28;20064;-60
2023/05/10 09:50:12;;;;;;;10.20;6.07;;;;;;;-147.51;100.00;68818.25;5055939;28;20482;-61
2023/05/10 09:52:48;;;;;;;7.20;5.85;;;;;;;-147.51;100.00;68818.25;5055905;28;20053;-61
2023/05/10 09:55:16;;;;;;;7.38;6.45;;;;;;;-147.51;100.00;68818.25;5055836;28;20064;-62
2023/05/10 09:57:45;;;;;;;8.50;6.60;;;;;;;-147.51;100.00;68818.25;5055981;28;20049;-63
2023/05/10 10:00:18;;;;;;;10.52;6.50;;;;;;;-147.51;100.00;68818.25;5055659;28;20794;-62
2023/05/10 10:02:47;;;;;;;9.07;7.43;;;;;;;-147.51;100.00;68818.25;5055378;28;20064;-62
2023/05/10 10:05:14;;;;;;;7.70;5.90;;;;;;;-147.51;100.00;68818.25;5055295;28;20049;-62
2023/05/10 10:07:42;;;;;;;7.75;5.82;;;;;;;-147.51;100.00;68818.25;5055508;28;20065;-62
2023/05/10 10:10:12;;;;;;;6.28;5.00;;;;;;;-147.51;100.00;68818.25;5055106;28;20052;-62
2023/05/10 10:12:41;;;;;;;5.85;4.50;;;;;;;-147.51;100.00;68818.25;5055253;28;20048;-61
2023/05/10 10:15:11;;;;;;;4.18;3.47;;;;;;;-147.51;100.00;68818.25;5055071;28;20514;-61
2023/05/10 10:17:39;;;;;;;5.75;4.45;;;;;;;-147.51;100.00;68818.25;5055371;28;20048;-61
2023/05/10 10:20:08;;;;;;;5.80;4.80;;;;;;;-147.51;100.00;68818.25;5055113;28;20057;-62
2023/05/10 10:22:35;;;;;;;5.25;4.75;;;;;;;-147.51;100.00;68818.25;5055257;28;20061;-61
2023/05/10 10:25:03;;;;;;;5.07;4.32;;;;;;;-147.51;100.00;68818.25;5055188;28;20067;-61
2023/05/10 10:27:44;;;;;;;6.43;5.80;;;;;;;-147.51;100.00;68818.25;5054689;28;20053;-62
2023/05/10 10:30:24;;;;;;;6.13;4.47;;;;;;;-147.51;100.00;68818.25;5055269;28;20067;-62
2023/05/10 10:33:14;;;;;;;5.60;4.38;;;;;;;-147.51;100.00;68818.25;5054768;28;20057;-61
2023/05/10 10:35:42;;;;;;;5.50;4.78;;;;;;;-147.51;100.00;68818.25;5054751;28;20057;-61
2023/05/10 10:38:09;;;;;;;7.93;5.10;;;;;;;-147.51;100.00;68818.25;5054764;28;20052;-61
2023/05/10 10:40:37;;;;;;;8.02;5.20;;;;;;;-147.51;100.00;68818.25;5054576;28;20053;-62
2023/05/10 10:43:25;;;;;;;7.50;5.53;;;;;;;-147.51;100.00;68818.25;5054640;28;20053;-61
2023/05/10 10:46:16;;;;;;;6.68;5.07;;;;;;;-147.51;100.00;68818.25;5054444;28;20049;-62
2023/05/10 10:48:49;;;;;;;7.78;5.43;;;;;;;-147.51;100.00;68818.25;5054834;28;20056;-61
2023/05/10 10:51:16;;;;;;;7.00;5.72;;;;;;;-147.51;100.00;68818.25;5054711;28;20064;-61
2023/05/10 10:53:44;;;;;;;7.45;5.65;;;;;;;-147.51;100.00;68818.25;5054638;28;20060;-61
2023/05/10 10:56:14;;;;;;;7.07;5.43;;;;;;;-147.51;100.00;68818.25;5053788;28;20064;-60
2023/05/10 10:58:49;;;;;;;7.97;5.22;;;;;;;-147.51;100.00;68818.25;5054784;28;20056;-61
2023/05/10 11:01:20;;;;;;;6.82;5.32;;;;;;;-147.51;100.00;68818.25;5054186;28;20418;-61
2023/05/10 11:04:18;;;;;;;7.25;5.68;;;;;;;-147.51;100.00;68818.25;5054492;28;20414;-61
2023/05/10 11:06:45;;;;;;;8.40;5.90;;;;;;;-147.51;100.00;68818.25;5054443;28;20049;-61
2023/05/10 11:09:13;;;;;;;9.93;6.97;;;;;;;-147.51;100.00;68818.25;5054596;28;20064;-61
2023/05/10 11:11:54;;;;;;;13.07;8.20;;;;;;;-147.51;100.00;68818.25;5054186;28;20053;-61
2023/05/10 11:14:23;;;;;;;10.82;8.98;;;;;;;-147.51;100.00;68818.25;5054282;28;20053;-60
2023/05/10 11:16:51;;;;;;;13.43;10.73;;;;;;;-147.51;100.00;68818.25;5053818;28;20056;-61
2023/05/10 11:19:20;;;;;;;16.20;12.38;;;;;;;-147.51;100.00;68818.25;5054011;28;20828;-61
2023/05/10 11:21:49;;;;;;;15.63;11.93;;;;;;;-147.51;100.00;68818.25;5053908;28;20055;-61
2023/05/10 11:24:18;;;;;;;17.38;12.52;;;;;;;-147.51;100.00;68818.25;5053958;28;20411;-61
2023/05/10 11:26:46;;;;;;;16.58;11.50;;;;;;;-147.51;100.00;68818.25;5053948;28;20056;-61
2023/05/10 11:29:14;;;;;;;15.35;11.90;;;;;;;-147.51;100.00;68818.25;5054313;28;20053;-62
2023/05/10 11:31:45;;;;;;;15.85;13.65;;;;;;;-147.51;100.00;68818.25;5053843;28;20410;-61
2023/05/10 11:34:24;;;;;;;15.18;11.55;;;;;;;-147.51;100.00;68818.25;5053839;28;20053;-61
2023/05/10 11:36:53;;;;;;;17.48;11.98;;;;;;;-147.51;100.00;68818.25;5053629;28;20060;-61